Aérodrome :
LOGIN :

S'inscrire | Disclaimer

   EN    FR    IT 

 










Légende :    VFR   VFR Marginal   IFR   IFR Intensif   IFR Très Intensif
Visi : 
Plafond : 
>= 8 km
>= 3000ft
5 à 8 km
1000 à 3000 ft
1500m à 5 km
500 à 1000 ft
800 à 1500m
200 à 500 ft
< 800m
< 200 ft
Symboles :   Orages  Brouillard  Fortes neiges  Fortes précipitations  Vent > 20 kt
SIGMETs :   Divers  Orages  Givrage  Turbulence  Onde Orograph.  Cendres Volcan.







- Altitude de l'aérodrome : 113 ft


EKRS - Ringsted

DERNIER METAR :
  • 161620Z AUTO 30010KT 250V350 9999 NCD 14/08 Q1013

METARs EXPIRÉS :
  • 161550Z AUTO 30012G25KT 220V040 9999 NCD 15/08 Q1013
  • 161520Z AUTO VRB12G22KT 9999 NCD 15/07 Q1013
  • 161450Z AUTO 30013KT 250V360 9999 NCD 15/07 Q1013
  • 161420Z AUTO 30015G26KT 230V040 9999 FEW034/// 15/06 Q1014
  • 161350Z AUTO 29013KT 230V010 9999 FEW038/// 15/08 Q1014

TAF N/A
Pas de NOTAMs connus pour ce terrain.



MET'MAP, la Météo Aéronautique d'un coup d'oeil ! - Copyright ORBIFLY Décembre 2007 - Disclaimer

ORBIFLY MET'MAP TEAM :

Programmation & Développement : Alexandra Zaïnal
Conception & Développement : Baudouin d'Aumeries
Co-Programmation & Développement : Marc-Olivier Méhu
Soutien technique & logistique : Manuel Goepfert

Contact : metmap@orbifly.com




SOURCES & CREDITS :

   NOAA